Fall Rock, Kentucky
Current Conditions -  °F | °C
As of 2:53 AM on Saturday 29 Nov 2014 (Local Time) from KLOZ Reporting Station
Clear Clear  
Wind Chill: 35°   Ceiling: Unl
Heat Index: 35°   Visibility: 10mi
Dew Point: 19°   Wind: 0mph
Humidity: 52%   Direction: NA
Pressure: 30.13"   Gusts: NA
Location:  37.22°N, 83.79°W
Report Text: KLOZ 290753Z AUTO 00000KT 10SM CLR 02/M07 A3013 RMK AO2 SLP211 T00171072
Loading
Personal Weather Stations






























Interactive Weather Map New forecast layout! Learn more

10-Day Weather Forecast

Advertisements
Track Severe Weather on mobile